KFEP/FEP METAR and TAF weather

Enter ICAO airport designator
Station Type Date Time Source
KFEP METAR 2020/07/15 07:55 UTC NOAA

KFEP 150755Z AUTO 33012KT 10SM TS SCT013 BKN048 OVC085 21/21 A3001 RMK AO2 LTG DSNT ALQS T02140212


Station Type Date Time Source
KFEP Decoded METAR 2020/07/15 07:55 UTC NOAA

Freeport, Albertus Airport, IL, United States (KFEP) 42-14-47N 089-34-56W
Jul 15, 2020 - 03:55 AM EDT / 2020.07.15 0755 UTC
Wind: from the NNW (330 degrees) at 14 MPH (12 KT):0
Visibility: 10 mile(s):0
Sky conditions: overcast
Weather: thunder; Lightning observed
Temperature: 70.5 F (21.4 C)
Dew Point: 70.2 F (21.2 C)
Relative Humidity: 98%
Pressure (altimeter): 30.01 in. Hg (1016 hPa)
ob: KFEP 150755Z AUTO 33012KT 10SM TS SCT013 BKN048 OVC085 21/21 A3001 RMK AO2 LTG DSNT ALQS T02140212
cycle: 8

Station Type Date Time Source
KFEP TAF UTC NOAA

Error!

Example: see airport list